createdAt,value
2023-03-23T15:58:32.223Z,98668.59
2023-03-23T16:01:06.459Z,98662.44
2023-03-23T16:03:40.870Z,98666.31
2023-03-23T16:06:13.573Z,98663.81
2023-03-23T16:08:54.660Z,98666.09
2023-03-23T16:11:25.550Z,98666.38
2023-03-23T16:13:54.682Z,98669.47
2023-03-23T16:16:28.672Z,98675.72
2023-03-23T16:18:57.402Z,98676.03
2023-03-23T16:21:26.226Z,98678.69
2023-03-23T16:23:54.691Z,98674.13
2023-03-23T16:26:23.327Z,98684.03
2023-03-23T16:28:57.366Z,98676.22
2023-03-23T16:31:33.049Z,98684.47
2023-03-23T16:34:01.525Z,98686.72
2023-03-23T16:36:29.951Z,98679.72
2023-03-23T16:38:58.447Z,98683.97
2023-03-23T16:41:27.073Z,98683.78
2023-03-23T16:43:55.669Z,98679.97
2023-03-23T16:46:24.919Z,98691.78
2023-03-23T16:48:55.374Z,98687.97
2023-03-23T16:51:24.047Z,98704.22
2023-03-23T16:53:52.689Z,98702.00
2023-03-23T16:56:21.180Z,98699.00
2023-03-23T16:58:49.623Z,98701.66
2023-03-23T17:01:18.252Z,98703.84
2023-03-23T17:03:47.067Z,98710.44
2023-03-23T17:06:17.001Z,98705.06
2023-03-23T17:08:45.446Z,98702.47
2023-03-23T17:11:14.019Z,98713.06
2023-03-23T17:13:42.822Z,98707.69
2023-03-23T17:16:11.585Z,98720.69
2023-03-23T17:18:40.038Z,98716.09
2023-03-23T17:21:09.151Z,98716.28
2023-03-23T17:23:39.155Z,98716.09
2023-03-23T17:26:08.522Z,98709.47
2023-03-23T17:28:37.357Z,98705.34
2023-03-23T17:31:06.634Z,98707.13
2023-03-23T17:33:35.533Z,98716.19
2023-03-23T17:36:04.318Z,98714.84
2023-03-23T17:38:32.804Z,98723.50
2023-03-23T17:41:06.405Z,98724.94
2023-03-23T17:43:36.673Z,98726.03
2023-03-23T17:46:06.040Z,98722.66
2023-03-23T17:48:36.223Z,98735.31
2023-03-23T17:51:06.963Z,98721.88
2023-03-23T17:53:37.754Z,98730.56
2023-03-23T17:56:13.182Z,98733.47
2023-03-23T17:58:42.222Z,98739.69
2023-03-23T18:01:12.833Z,98732.75
2023-03-23T18:03:42.946Z,98736.94
2023-03-23T18:06:13.784Z,98733.59
2023-03-23T18:08:43.296Z,98743.38
2023-03-23T18:11:14.248Z,98737.63
2023-03-23T18:13:44.528Z,98741.81
2023-03-23T18:16:15.462Z,98742.06
2023-03-23T18:18:47.636Z,98743.13
2023-03-23T18:21:18.578Z,98743.00
2023-03-23T18:23:56.873Z,98748.81
2023-03-23T18:26:31.561Z,98757.44
2023-03-23T18:29:02.169Z,98763.25
2023-03-23T18:31:35.222Z,98767.56
2023-03-23T18:34:06.141Z,98770.25
2023-03-23T18:36:36.696Z,98769.34
2023-03-23T18:39:07.433Z,98767.25
2023-03-23T18:41:39.256Z,98771.91
2023-03-23T18:44:08.239Z,98765.41
2023-03-23T18:46:38.434Z,98772.50
2023-03-23T18:49:11.002Z,98776.81
2023-03-23T18:51:40.731Z,98778.31
2023-03-23T18:54:11.238Z,98779.00
2023-03-23T18:56:49.151Z,98778.91
2023-03-23T18:59:19.405Z,98775.63
2023-03-23T19:01:50.355Z,98779.47
2023-03-23T19:04:22.865Z,98772.94
2023-03-23T19:06:56.048Z,98772.69
2023-03-23T19:09:26.813Z,98770.94
2023-03-23T19:11:59.749Z,98777.06
2023-03-23T19:14:29.895Z,98771.72
2023-03-23T19:17:01.084Z,98781.94
2023-03-23T19:19:32.389Z,98777.03
2023-03-23T19:22:03.370Z,98778.22
2023-03-23T19:24:35.915Z,98772.66
2023-03-23T19:27:09.689Z,98772.66
2023-03-23T19:29:39.869Z,98775.06
2023-03-23T19:32:13.025Z,98775.53
2023-03-23T19:37:16.340Z,98783.81
2023-03-23T19:39:49.379Z,98788.94
2023-03-23T19:42:24.265Z,98782.88
2023-03-23T19:44:54.850Z,98779.25
2023-03-23T19:47:27.750Z,98781.22
2023-03-23T19:50:00.010Z,98783.19
2023-03-23T19:52:30.717Z,98785.66
2023-03-23T19:55:01.652Z,98782.53
2023-03-23T19:57:33.547Z,98778.59
2023-03-23T20:00:07.648Z,98777.03
2023-03-23T20:02:40.327Z,98778.34
2023-03-23T20:05:11.096Z,98773.72
2023-03-23T20:07:42.834Z,98784.16
2023-03-23T20:10:16.772Z,98778.25
2023-03-23T20:12:49.988Z,98782.34
2023-03-23T20:15:21.673Z,98776.41
2023-03-23T20:17:51.764Z,98782.81
2023-03-23T20:20:23.810Z,98783.47
2023-03-23T20:22:57.823Z,98785.81
2023-03-23T20:25:29.294Z,98794.03
2023-03-23T20:28:01.937Z,98782.78
2023-03-23T20:30:32.956Z,98784.28
2023-03-23T20:33:03.421Z,98784.63
2023-03-23T20:35:33.532Z,98789.75
2023-03-23T20:38:04.357Z,98788.94
2023-03-23T20:40:36.406Z,98791.25
2023-03-23T20:43:08.992Z,98796.84
2023-03-23T20:45:40.917Z,98803.56
2023-03-23T20:48:10.553Z,98808.31
2023-03-23T20:50:40.236Z,98815.09
2023-03-23T20:53:09.351Z,98815.88
2023-03-23T20:55:39.218Z,98819.47
2023-03-23T20:58:10.806Z,98816.69
2023-03-23T21:00:42.695Z,98813.91
2023-03-23T21:03:13.480Z,98817.16
2023-03-23T21:05:44.596Z,98801.22
2023-03-23T21:08:14.902Z,98801.38
2023-03-23T21:10:45.171Z,98791.34
2023-03-23T21:13:17.167Z,98796.47
2023-03-23T21:15:47.047Z,98799.28
2023-03-23T21:18:16.635Z,98797.63
2023-03-23T21:20:47.797Z,98795.53
2023-03-23T21:23:17.076Z,98789.97
2023-03-23T21:25:48.137Z,98795.41
2023-03-23T21:28:19.522Z,98795.75
2023-03-23T21:30:49.457Z,98794.47
2023-03-23T21:33:17.977Z,98803.19
2023-03-23T21:35:47.261Z,98796.66
2023-03-23T21:38:19.837Z,98796.53
2023-03-23T21:40:48.628Z,98800.34
2023-03-23T21:43:18.510Z,98801.38
2023-03-23T21:45:47.909Z,98795.19
2023-03-23T21:48:16.495Z,98799.84
2023-03-23T21:50:45.070Z,98803.66
2023-03-23T21:53:18.118Z,98808.28
2023-03-23T21:55:51.206Z,98805.69
2023-03-23T21:58:23.092Z,98803.09
2023-03-23T22:00:54.247Z,98794.59
2023-03-23T22:03:23.818Z,98798.88
2023-03-23T22:05:55.271Z,98797.59
2023-03-23T22:08:25.689Z,98795.47
2023-03-23T22:11:00.793Z,98786.28
2023-03-23T22:13:33.868Z,98788.97
2023-03-23T22:16:04.218Z,98785.00
2023-03-23T22:18:33.361Z,98781.41
2023-03-23T22:21:02.155Z,98788.59
2023-03-23T22:23:30.568Z,98782.22
2023-03-23T22:25:59.048Z,98780.94
2023-03-23T22:28:31.120Z,98774.06
2023-03-23T22:31:04.201Z,98777.53
2023-03-23T22:33:33.912Z,98770.66
2023-03-23T22:36:06.219Z,98771.00
2023-03-23T22:38:35.638Z,98765.28
2023-03-23T22:41:07.136Z,98774.81
2023-03-23T22:43:37.732Z,98762.38
2023-03-23T22:46:07.064Z,98762.38
2023-03-23T22:48:35.866Z,98759.91
2023-03-23T22:51:04.745Z,98759.13
2023-03-23T22:53:33.203Z,98758.31
2023-03-23T22:56:01.781Z,98755.50
2023-03-23T22:58:30.349Z,98755.88
2023-03-23T23:01:03.802Z,98759.31
2023-03-23T23:03:32.898Z,98758.16
2023-03-23T23:06:02.198Z,98749.31
2023-03-23T23:08:33.049Z,98751.63
2023-03-23T23:11:04.128Z,98750.34
2023-03-23T23:13:33.814Z,98752.66
2023-03-23T23:16:04.105Z,98746.59
2023-03-23T23:18:33.315Z,98745.78
2023-03-23T23:21:08.861Z,98750.88
2023-03-23T23:23:38.025Z,98745.66
2023-03-23T23:26:07.693Z,98751.22
2023-03-23T23:28:36.311Z,98749.59
2023-03-23T23:31:19.524Z,98747.97
2023-03-23T23:33:47.984Z,98746.69
2023-03-23T23:36:16.436Z,98741.78
2023-03-23T23:38:44.940Z,98746.88
2023-03-23T23:41:13.576Z,98745.56
2023-03-23T23:43:42.002Z,98755.88
2023-03-23T23:46:11.868Z,98749.38
2023-03-23T23:48:40.690Z,98749.38
2023-03-23T23:51:09.911Z,98750.03
2023-03-23T23:53:38.925Z,98749.06
2023-03-23T23:56:08.921Z,98738.94
2023-03-23T23:58:37.415Z,98744.38
